Time;durP1;ratioP1;P1;durP2;ratioP2;P2;SDS_P1;SDS_P2;PMS_P1;PMS_P2;Temp;Humidity;BMP_temperature;BMP_pressure;BME280_temperature;BME280_humidity;BME280_pressure;Samples;Min_cycle;Max_cycle;Signal;HPM_P1;HPM_P2
2022/03/09 00:00:05;;;;;;;4.25;1.85;;;;;;;;;;4978139;28;20604;-64
2022/03/09 00:02:30;;;;;;;4.93;1.98;;;;;;;;;;4964514;28;20038;-63
2022/03/09 00:04:56;;;;;;;4.32;2.15;;;;;;;;;;4977140;28;20076;-64
2022/03/09 00:07:22;;;;;;;3.65;1.85;;;;;;;;;;4975547;28;20088;-64
2022/03/09 00:09:48;;;;;;;3.55;1.75;;;;;;;;;;4976879;28;20033;-63
2022/03/09 00:12:14;;;;;;;3.88;2.20;;;;;;;;;;4974028;28;20040;-64
2022/03/09 00:14:39;;;;;;;3.03;1.75;;;;;;;;;;4973838;28;20038;-63
2022/03/09 00:17:05;;;;;;;7.35;1.73;;;;;;;;;;4971585;28;20053;-65
2022/03/09 00:19:30;;;;;;;2.53;1.40;;;;;;;;;;4990343;28;20110;-63
2022/03/09 00:21:57;;;;;;;4.57;1.60;;;;;;;;;;4973148;28;20030;-65
2022/03/09 00:24:22;;;;;;;7.15;2.88;;;;;;;;;;4975536;28;20041;-65
2022/03/09 00:26:48;;;;;;;5.20;2.28;;;;;;;;;;4972847;28;20377;-64
2022/03/09 00:29:14;;;;;;;10.40;3.78;;;;;;;;;;4972147;28;20037;-65
2022/03/09 00:31:39;;;;;;;7.40;3.35;;;;;;;;;;4974319;28;20033;-64
2022/03/09 00:34:05;;;;;;;3.95;2.05;;;;;;;;;;4973908;28;20034;-64
2022/03/09 00:36:30;;;;;;;3.05;2.20;;;;;;;;;;4990485;28;20549;-64
2022/03/09 00:38:56;;;;;;;3.80;2.35;;;;;;;;;;4978391;28;20034;-66
2022/03/09 00:41:22;;;;;;;4.03;2.25;;;;;;;;;;4975509;28;20040;-65
2022/03/09 00:43:48;;;;;;;5.15;2.72;;;;;;;;;;4974601;28;20038;-64
2022/03/09 00:46:14;;;;;;;3.13;1.83;;;;;;;;;;4974541;28;20701;-64
2022/03/09 00:48:40;;;;;;;4.32;1.80;;;;;;;;;;4974721;28;20113;-64
2022/03/09 00:51:06;;;;;;;2.55;1.60;;;;;;;;;;4972003;28;20030;-64
2022/03/09 00:53:31;;;;;;;6.13;2.10;;;;;;;;;;4973274;28;20030;-64
2022/03/09 00:55:57;;;;;;;2.75;1.90;;;;;;;;;;4972829;28;20026;-64
2022/03/09 00:58:23;;;;;;;4.82;2.47;;;;;;;;;;4971618;28;20084;-64
2022/03/09 01:00:49;;;;;;;5.47;1.92;;;;;;;;;;4990071;28;20030;-64
2022/03/09 01:03:17;;;;;;;4.30;2.05;;;;;;;;;;4989831;28;20030;-64
2022/03/09 01:05:42;;;;;;;5.00;2.65;;;;;;;;;;4975084;28;20105;-64
2022/03/09 01:08:09;;;;;;;4.32;2.40;;;;;;;;;;4975667;28;20397;-64
2022/03/09 01:10:34;;;;;;;3.88;2.30;;;;;;;;;;4974267;28;20117;-64
2022/03/09 01:13:00;;;;;;;5.63;2.55;;;;;;;;;;4975553;28;20524;-64
2022/03/09 01:15:26;;;;;;;3.78;2.10;;;;;;;;;;4972983;28;20045;-63
2022/03/09 01:17:52;;;;;;;5.00;2.22;;;;;;;;;;4972274;28;20038;-63
2022/03/09 01:20:21;;;;;;;4.95;2.10;;;;;;;;;;4975551;28;20039;-63
2022/03/09 01:22:49;;;;;;;7.28;3.10;;;;;;;;;;4972823;28;20282;-64
2022/03/09 01:25:16;;;;;;;4.85;2.40;;;;;;;;;;4974869;28;20058;-65
2022/03/09 01:27:42;;;;;;;4.47;1.77;;;;;;;;;;4973698;28;20030;-63
2022/03/09 01:30:08;;;;;;;4.18;2.60;;;;;;;;;;4973523;28;20540;-61
2022/03/09 01:32:34;;;;;;;4.20;2.30;;;;;;;;;;4989115;28;20157;-65
2022/03/09 01:35:00;;;;;;;4.30;2.65;;;;;;;;;;4974326;28;21605;-63
2022/03/09 01:37:26;;;;;;;7.18;2.85;;;;;;;;;;4973102;28;21796;-64
2022/03/09 01:39:55;;;;;;;7.03;2.47;;;;;;;;;;4955995;28;20164;-63
2022/03/09 01:42:21;;;;;;;4.75;2.78;;;;;;;;;;4973156;28;20034;-64
2022/03/09 01:44:46;;;;;;;3.90;2.08;;;;;;;;;;4988633;28;20030;-65
2022/03/09 01:47:13;;;;;;;8.52;2.92;;;;;;;;;;4974172;28;21903;-65
2022/03/09 01:49:39;;;;;;;5.63;2.67;;;;;;;;;;4974430;28;20065;-64
2022/03/09 01:52:05;;;;;;;5.63;2.25;;;;;;;;;;4973762;28;20153;-65
2022/03/09 01:54:32;;;;;;;7.78;2.75;;;;;;;;;;4972267;28;20034;-65
2022/03/09 01:56:59;;;;;;;8.43;3.22;;;;;;;;;;4971950;28;20027;-65
2022/03/09 01:59:25;;;;;;;4.97;2.90;;;;;;;;;;4972277;28;20034;-64
2022/03/09 02:01:51;;;;;;;5.05;1.98;;;;;;;;;;4973940;28;20018;-64
2022/03/09 02:04:18;;;;;;;5.47;2.70;;;;;;;;;;4975894;28;20025;-65
2022/03/09 02:06:44;;;;;;;11.20;2.40;;;;;;;;;;4989110;28;20564;-64
2022/03/09 02:11:57;;;;;;;7.40;2.50;;;;;;;;;;4972867;28;20045;-65
2022/03/09 02:14:29;;;;;;;6.70;2.75;;;;;;;;;;4974949;28;20030;-64
2022/03/09 02:16:58;;;;;;;7.70;2.55;;;;;;;;;;4972187;28;20069;-64
2022/03/09 02:19:24;;;;;;;6.72;3.08;;;;;;;;;;4988502;28;20045;-64
2022/03/09 02:21:51;;;;;;;7.25;3.22;;;;;;;;;;4973918;28;20081;-64
2022/03/09 02:24:17;;;;;;;7.07;2.95;;;;;;;;;;4973634;28;20030;-64
2022/03/09 02:26:43;;;;;;;5.20;2.67;;;;;;;;;;4971272;28;20128;-65
2022/03/09 02:29:08;;;;;;;7.50;3.08;;;;;;;;;;4970519;28;20254;-65
2022/03/09 02:31:34;;;;;;;4.20;2.38;;;;;;;;;;4972831;28;20453;-63
2022/03/09 02:33:59;;;;;;;7.05;2.80;;;;;;;;;;4975549;28;20046;-64
2022/03/09 02:36:25;;;;;;;6.75;2.50;;;;;;;;;;4972227;28;20049;-63
2022/03/09 02:38:50;;;;;;;5.60;2.63;;;;;;;;;;4973464;28;20031;-64
2022/03/09 02:41:16;;;;;;;7.10;2.90;;;;;;;;;;4971576;28;20362;-63
2022/03/09 02:43:42;;;;;;;5.53;3.25;;;;;;;;;;4970179;28;20042;-65
2022/03/09 02:46:07;;;;;;;10.57;3.88;;;;;;;;;;4955450;28;20131;-65
2022/03/09 02:48:33;;;;;;;6.18;2.75;;;;;;;;;;4973204;28;20038;-63
2022/03/09 02:50:58;;;;;;;5.78;2.42;;;;;;;;;;4955140;28;20030;-65
2022/03/09 02:53:24;;;;;;;6.15;3.17;;;;;;;;;;4974473;28;20096;-63
2022/03/09 02:55:52;;;;;;;7.85;3.70;;;;;;;;;;4971668;28;20060;-63
2022/03/09 02:58:17;;;;;;;14.45;3.75;;;;;;;;;;4955356;28;20026;-63
2022/03/09 03:00:43;;;;;;;7.10;2.90;;;;;;;;;;4972365;28;20038;-63
2022/03/09 03:03:09;;;;;;;4.80;2.72;;;;;;;;;;4972532;28;20370;-65
2022/03/09 03:05:35;;;;;;;3.72;2.75;;;;;;;;;;4968894;28;20034;-63
2022/03/09 03:08:00;;;;;;;9.75;3.75;;;;;;;;;;4972026;28;20038;-65
2022/03/09 03:10:26;;;;;;;4.32;2.55;;;;;;;;;;4970151;28;20046;-63
2022/03/09 03:12:51;;;;;;;6.75;2.67;;;;;;;;;;4972186;28;20076;-63
2022/03/09 03:15:17;;;;;;;6.82;3.15;;;;;;;;;;4973501;28;20049;-64
2022/03/09 03:17:42;;;;;;;6.50;3.20;;;;;;;;;;4973810;28;20756;-63
2022/03/09 03:20:11;;;;;;;7.28;3.40;;;;;;;;;;4974993;28;20034;-64
2022/03/09 03:22:37;;;;;;;5.85;3.42;;;;;;;;;;4977128;28;20770;-64
2022/03/09 03:25:03;;;;;;;7.25;3.00;;;;;;;;;;4975145;28;20040;-65
2022/03/09 03:27:28;;;;;;;6.25;3.25;;;;;;;;;;4974354;28;20030;-63
2022/03/09 03:29:54;;;;;;;7.45;3.75;;;;;;;;;;4975922;28;20060;-64
2022/03/09 03:32:20;;;;;;;7.35;3.47;;;;;;;;;;4978181;28;20394;-64
2022/03/09 03:34:45;;;;;;;7.47;3.40;;;;;;;;;;4972105;28;20038;-64
2022/03/09 03:37:11;;;;;;;8.13;3.25;;;;;;;;;;4976688;28;20037;-63
2022/03/09 03:39:36;;;;;;;7.22;3.25;;;;;;;;;;4955910;28;20094;-63
2022/03/09 03:42:02;;;;;;;9.32;3.63;;;;;;;;;;4962499;28;20035;-64
2022/03/09 03:44:28;;;;;;;6.15;3.50;;;;;;;;;;4972957;28;20049;-63
2022/03/09 03:46:53;;;;;;;12.43;3.65;;;;;;;;;;4975649;28;20114;-64
2022/03/09 03:49:19;;;;;;;6.97;3.83;;;;;;;;;;4980548;28;20118;-64
2022/03/09 03:51:44;;;;;;;11.18;4.32;;;;;;;;;;4989408;28;20030;-63
2022/03/09 03:54:10;;;;;;;5.15;2.88;;;;;;;;;;4974768;28;20120;-63
2022/03/09 03:56:36;;;;;;;7.90;3.60;;;;;;;;;;4974805;28;20041;-64
2022/03/09 03:59:01;;;;;;;7.80;3.90;;;;;;;;;;4961783;28;20042;-64
2022/03/09 04:01:27;;;;;;;6.75;3.60;;;;;;;;;;4979141;28;20342;-64
2022/03/09 04:03:53;;;;;;;6.45;3.42;;;;;;;;;;4974960;28;20092;-65
2022/03/09 04:06:18;;;;;;;13.63;3.88;;;;;;;;;;4971400;28;20049;-64
2022/03/09 04:08:44;;;;;;;10.20;3.28;;;;;;;;;;4973220;28;20038;-64
2022/03/09 04:11:09;;;;;;;7.03;3.53;;;;;;;;;;4956434;28;20037;-64
2022/03/09 04:13:35;;;;;;;7.72;3.35;;;;;;;;;;4972369;28;20792;-64
2022/03/09 04:16:01;;;;;;;5.63;3.15;;;;;;;;;;4970298;28;20078;-64
2022/03/09 04:18:27;;;;;;;10.60;3.63;;;;;;;;;;4935379;28;20034;-64
2022/03/09 04:20:52;;;;;;;6.63;3.42;;;;;;;;;;4989011;28;20077;-65
2022/03/09 04:23:18;;;;;;;7.65;3.83;;;;;;;;;;4972318;28;20041;-65
2022/03/09 04:25:43;;;;;;;7.50;3.28;;;;;;;;;;4972610;28;20031;-63
2022/03/09 04:28:09;;;;;;;7.30;3.30;;;;;;;;;;4972669;28;20030;-64
2022/03/09 04:30:35;;;;;;;6.55;3.50;;;;;;;;;;4975825;28;20057;-64
2022/03/09 04:33:00;;;;;;;5.47;3.20;;;;;;;;;;4974762;28;20026;-64
2022/03/09 04:35:26;;;;;;;7.72;3.72;;;;;;;;;;4972434;28;20121;-65
2022/03/09 04:37:52;;;;;;;4.20;3.13;;;;;;;;;;4972439;28;20029;-65
2022/03/09 04:40:17;;;;;;;6.10;3.10;;;;;;;;;;4974683;28;20079;-65
2022/03/09 04:42:43;;;;;;;6.82;3.13;;;;;;;;;;4988756;28;20045;-65
2022/03/09 04:45:09;;;;;;;7.30;2.92;;;;;;;;;;4973793;28;20026;-65
2022/03/09 04:47:34;;;;;;;9.18;4.40;;;;;;;;;;4987993;28;20033;-65
2022/03/09 04:50:00;;;;;;;7.80;3.42;;;;;;;;;;4973444;28;20450;-64
2022/03/09 04:52:26;;;;;;;11.27;3.72;;;;;;;;;;4973868;28;20027;-64
2022/03/09 04:54:51;;;;;;;8.80;3.83;;;;;;;;;;4974574;28;20113;-65
2022/03/09 04:57:17;;;;;;;8.65;3.70;;;;;;;;;;4971967;28;20034;-64
2022/03/09 04:59:43;;;;;;;7.22;3.88;;;;;;;;;;4972042;28;20039;-64
2022/03/09 05:02:09;;;;;;;7.03;3.85;;;;;;;;;;4975206;28;20565;-65
2022/03/09 05:04:34;;;;;;;8.85;3.95;;;;;;;;;;4970854;28;20030;-64
2022/03/09 05:07:00;;;;;;;7.90;4.18;;;;;;;;;;4972825;28;20508;-64
2022/03/09 05:09:25;;;;;;;11.15;4.40;;;;;;;;;;4971479;28;20076;-65
2022/03/09 05:11:51;;;;;;;11.27;3.67;;;;;;;;;;4975862;28;20025;-63
2022/03/09 05:14:17;;;;;;;14.73;3.65;;;;;;;;;;4975067;28;20657;-64
2022/03/09 05:16:42;;;;;;;7.93;3.92;;;;;;;;;;4974726;28;20045;-64
2022/03/09 05:19:08;;;;;;;10.35;3.70;;;;;;;;;;4988628;28;20029;-65
2022/03/09 05:21:38;;;;;;;8.68;3.97;;;;;;;;;;4973831;28;20030;-65
2022/03/09 05:24:03;;;;;;;7.20;3.58;;;;;;;;;;4973009;28;20037;-65
2022/03/09 05:26:29;;;;;;;11.98;3.92;;;;;;;;;;4962891;28;20034;-64
2022/03/09 05:28:57;;;;;;;10.18;3.83;;;;;;;;;;4973770;28;20093;-64
2022/03/09 05:31:23;;;;;;;9.23;4.78;;;;;;;;;;4972465;28;20077;-63
2022/03/09 05:33:49;;;;;;;7.43;3.53;;;;;;;;;;4972307;28;20382;-64
2022/03/09 05:36:15;;;;;;;9.43;4.40;;;;;;;;;;4969668;28;20044;-63
2022/03/09 05:38:41;;;;;;;8.40;3.92;;;;;;;;;;4972510;28;20033;-65
2022/03/09 05:41:07;;;;;;;12.85;4.22;;;;;;;;;;4974357;28;20053;-64
2022/03/09 05:43:36;;;;;;;7.32;3.90;;;;;;;;;;4957171;28;20030;-65
2022/03/09 05:46:02;;;;;;;7.78;3.85;;;;;;;;;;4972597;28;20037;-65
2022/03/09 05:48:27;;;;;;;7.57;3.95;;;;;;;;;;4971585;28;21247;-63
2022/03/09 05:50:53;;;;;;;7.32;3.25;;;;;;;;;;4968078;28;20076;-65
2022/03/09 05:53:19;;;;;;;8.30;3.75;;;;;;;;;;4970513;28;20039;-64
2022/03/09 05:55:45;;;;;;;8.48;4.07;;;;;;;;;;4970586;28;20066;-64
2022/03/09 05:58:10;;;;;;;11.88;5.30;;;;;;;;;;4970786;28;20074;-64
2022/03/09 06:00:36;;;;;;;8.05;3.80;;;;;;;;;;4957573;28;20958;-63
2022/03/09 06:03:01;;;;;;;8.68;4.00;;;;;;;;;;4970125;28;20038;-63
2022/03/09 06:05:29;;;;;;;6.97;3.72;;;;;;;;;;4955218;28;20455;-64
2022/03/09 06:07:55;;;;;;;7.70;4.10;;;;;;;;;;4969695;28;21130;-64
2022/03/09 06:10:25;;;;;;;9.23;4.15;;;;;;;;;;4971248;28;20033;-62
2022/03/09 06:12:52;;;;;;;9.30;4.03;;;;;;;;;;4971683;28;20027;-64
2022/03/09 06:15:17;;;;;;;10.73;3.42;;;;;;;;;;4972037;28;20109;-64
2022/03/09 06:17:44;;;;;;;8.23;3.95;;;;;;;;;;4970149;28;20050;-64
2022/03/09 06:20:10;;;;;;;8.75;4.22;;;;;;;;;;4958249;28;20072;-64
2022/03/09 06:22:36;;;;;;;8.75;3.85;;;;;;;;;;4986495;28;20038;-64
2022/03/09 06:25:01;;;;;;;9.93;4.05;;;;;;;;;;4986249;28;20894;-64
2022/03/09 06:27:27;;;;;;;8.13;4.03;;;;;;;;;;4966686;28;20073;-64
2022/03/09 06:29:55;;;;;;;10.48;4.07;;;;;;;;;;4970883;28;20038;-63
2022/03/09 06:32:21;;;;;;;9.57;4.25;;;;;;;;;;4971388;28;20057;-63
2022/03/09 06:34:46;;;;;;;8.40;3.70;;;;;;;;;;4971481;28;20031;-65
2022/03/09 06:37:12;;;;;;;8.73;3.35;;;;;;;;;;4968677;28;20041;-64
2022/03/09 06:39:37;;;;;;;8.15;4.00;;;;;;;;;;4970457;28;20145;-64
2022/03/09 06:42:03;;;;;;;9.82;4.10;;;;;;;;;;4985934;28;20731;-65
2022/03/09 06:44:29;;;;;;;8.98;3.80;;;;;;;;;;4953268;28;20057;-64
2022/03/09 06:46:56;;;;;;;6.95;4.28;;;;;;;;;;4968938;28;20394;-64
2022/03/09 06:49:22;;;;;;;7.78;4.20;;;;;;;;;;4946720;28;20497;-65
2022/03/09 06:51:48;;;;;;;7.15;3.58;;;;;;;;;;4971582;28;20073;-64
2022/03/09 06:54:16;;;;;;;10.00;3.63;;;;;;;;;;4976924;28;20018;-64
2022/03/09 06:56:42;;;;;;;8.50;4.53;;;;;;;;;;4974892;28;20127;-65
2022/03/09 06:59:08;;;;;;;12.85;4.57;;;;;;;;;;4966241;28;20049;-64
2022/03/09 07:01:33;;;;;;;7.32;4.13;;;;;;;;;;4961589;28;20058;-64
2022/03/09 07:03:59;;;;;;;9.60;4.40;;;;;;;;;;4963659;28;20064;-63
2022/03/09 07:06:25;;;;;;;10.05;3.63;;;;;;;;;;4975650;28;20065;-64
2022/03/09 07:08:50;;;;;;;8.48;4.55;;;;;;;;;;4952651;28;20041;-65
2022/03/09 07:11:16;;;;;;;7.25;3.95;;;;;;;;;;4974307;28;20044;-65
2022/03/09 07:13:41;;;;;;;8.25;4.05;;;;;;;;;;4986795;28;20465;-64
2022/03/09 07:16:08;;;;;;;11.85;4.03;;;;;;;;;;4971398;28;20072;-65
2022/03/09 07:18:33;;;;;;;6.32;3.67;;;;;;;;;;4985627;28;20136;-65
2022/03/09 07:21:00;;;;;;;6.80;3.90;;;;;;;;;;4971415;28;20105;-65
2022/03/09 07:23:25;;;;;;;11.02;4.50;;;;;;;;;;4975070;28;20478;-64
2022/03/09 07:25:51;;;;;;;7.65;3.83;;;;;;;;;;4974905;28;20122;-64
2022/03/09 07:28:19;;;;;;;7.20;3.85;;;;;;;;;;4959565;28;20038;-64
2022/03/09 07:30:46;;;;;;;14.32;4.75;;;;;;;;;;4961214;28;21149;-64
2022/03/09 07:33:12;;;;;;;6.82;4.05;;;;;;;;;;4973060;28;20665;-64
2022/03/09 07:35:38;;;;;;;6.07;3.45;;;;;;;;;;4974310;28;20041;-64
2022/03/09 07:38:10;;;;;;;7.88;4.85;;;;;;;;;;4973874;28;20206;-64
2022/03/09 07:40:35;;;;;;;8.75;3.58;;;;;;;;;;4965628;28;20044;-65
2022/03/09 07:43:01;;;;;;;7.60;4.07;;;;;;;;;;4959727;28;20038;-64
2022/03/09 07:45:30;;;;;;;7.18;4.03;;;;;;;;;;4952675;28;20037;-66
2022/03/09 07:47:58;;;;;;;10.23;3.55;;;;;;;;;;4963119;28;20029;-64
2022/03/09 07:50:23;;;;;;;6.85;3.72;;;;;;;;;;4951675;28;20047;-66
2022/03/09 07:52:49;;;;;;;6.93;4.25;;;;;;;;;;4972429;28;22613;-64
2022/03/09 07:55:20;;;;;;;7.90;3.72;;;;;;;;;;4960452;28;20112;-64
2022/03/09 07:57:49;;;;;;;10.32;3.92;;;;;;;;;;4964170;28;20620;-67
2022/03/09 08:00:17;;;;;;;11.40;4.28;;;;;;;;;;4957071;28;20029;-65
2022/03/09 08:02:43;;;;;;;6.20;4.05;;;;;;;;;;4956396;28;20038;-64
2022/03/09 08:05:08;;;;;;;7.07;4.10;;;;;;;;;;4969115;28;20092;-64
2022/03/09 08:07:34;;;;;;;9.88;4.07;;;;;;;;;;4973830;28;21586;-64
2022/03/09 08:10:04;;;;;;;9.80;3.75;;;;;;;;;;4958774;28;20120;-65
2022/03/09 08:12:30;;;;;;;6.80;3.97;;;;;;;;;;4965781;28;20041;-64
2022/03/09 08:14:56;;;;;;;5.03;3.40;;;;;;;;;;4981547;28;20599;-65
2022/03/09 08:17:24;;;;;;;6.65;4.03;;;;;;;;;;4941432;28;20927;-65
2022/03/09 08:19:50;;;;;;;9.20;4.00;;;;;;;;;;4957307;28;20044;-65
2022/03/09 08:22:15;;;;;;;11.05;4.35;;;;;;;;;;4950406;28;20102;-66
2022/03/09 08:24:41;;;;;;;7.20;4.30;;;;;;;;;;4973708;28;20046;-64
2022/03/09 08:27:09;;;;;;;7.78;4.00;;;;;;;;;;4963970;28;20049;-66
2022/03/09 08:29:38;;;;;;;6.18;3.65;;;;;;;;;;4943733;28;20034;-65
2022/03/09 08:32:08;;;;;;;6.75;3.83;;;;;;;;;;4957619;28;20463;-65
2022/03/09 08:34:33;;;;;;;6.18;3.53;;;;;;;;;;4958029;28;20025;-64
2022/03/09 08:37:01;;;;;;;7.47;4.13;;;;;;;;;;4972077;28;20030;-65
2022/03/09 08:39:31;;;;;;;6.78;3.80;;;;;;;;;;4932984;28;20129;-65
2022/03/09 08:42:02;;;;;;;5.80;3.65;;;;;;;;;;4964517;28;20116;-64
2022/03/09 08:44:32;;;;;;;7.45;3.95;;;;;;;;;;4943815;28;20026;-65
2022/03/09 08:47:00;;;;;;;5.75;3.95;;;;;;;;;;4963407;28;20117;-65
2022/03/09 08:49:25;;;;;;;7.75;4.05;;;;;;;;;;4940257;28;20033;-64
2022/03/09 08:51:51;;;;;;;8.57;4.13;;;;;;;;;;4963474;28;20045;-64
2022/03/09 08:54:19;;;;;;;6.50;3.95;;;;;;;;;;4967266;28;21977;-64
2022/03/09 08:56:47;;;;;;;6.60;3.97;;;;;;;;;;4970548;28;20038;-65
2022/03/09 08:59:12;;;;;;;5.28;3.65;;;;;;;;;;4966130;28;20518;-65
2022/03/09 09:01:38;;;;;;;12.85;3.60;;;;;;;;;;4970061;28;20065;-66
2022/03/09 09:04:03;;;;;;;7.97;3.72;;;;;;;;;;4970200;28;20022;-65
2022/03/09 09:06:36;;;;;;;8.07;3.90;;;;;;;;;;4953748;28;20034;-65
2022/03/09 09:09:02;;;;;;;6.13;3.72;;;;;;;;;;4973024;28;20029;-65
2022/03/09 09:11:27;;;;;;;7.55;3.92;;;;;;;;;;4958853;28;20038;-64
2022/03/09 09:13:55;;;;;;;9.30;4.45;;;;;;;;;;4954838;28;20030;-66
2022/03/09 09:16:23;;;;;;;7.78;3.90;;;;;;;;;;4969743;28;20061;-65
2022/03/09 09:18:48;;;;;;;6.43;4.05;;;;;;;;;;4956130;28;20113;-66
2022/03/09 09:21:18;;;;;;;7.97;3.83;;;;;;;;;;4972724;28;20125;-64
2022/03/09 09:23:44;;;;;;;7.90;4.05;;;;;;;;;;4989941;28;20109;-64
2022/03/09 09:26:13;;;;;;;7.93;3.85;;;;;;;;;;4971888;28;20045;-65
2022/03/09 09:28:39;;;;;;;4.63;3.47;;;;;;;;;;4973117;28;20038;-65
2022/03/09 09:31:04;;;;;;;6.72;3.50;;;;;;;;;;4958849;28;20040;-66
2022/03/09 09:33:35;;;;;;;6.13;3.65;;;;;;;;;;4984077;28;20037;-65
2022/03/09 09:36:00;;;;;;;9.15;3.80;;;;;;;;;;4986902;28;20049;-64
2022/03/09 09:38:28;;;;;;;5.55;3.60;;;;;;;;;;4966008;28;20026;-65
2022/03/09 09:40:55;;;;;;;6.10;3.75;;;;;;;;;;4954469;28;20033;-65
2022/03/09 09:43:21;;;;;;;10.38;3.58;;;;;;;;;;4969310;28;20141;-66
2022/03/09 09:45:49;;;;;;;10.52;4.00;;;;;;;;;;4990679;28;20038;-65
2022/03/09 09:48:15;;;;;;;9.25;4.07;;;;;;;;;;4970225;28;20022;-65
2022/03/09 09:50:43;;;;;;;5.05;3.45;;;;;;;;;;4973387;28;20229;-65
2022/03/09 09:53:11;;;;;;;7.45;3.35;;;;;;;;;;4972299;28;20048;-65
2022/03/09 09:55:41;;;;;;;9.50;4.10;;;;;;;;;;4953020;28;20065;-65
2022/03/09 09:58:06;;;;;;;12.55;4.45;;;;;;;;;;4985319;28;21509;-65
2022/03/09 10:00:32;;;;;;;8.82;3.80;;;;;;;;;;4972842;28;20699;-65
2022/03/09 10:03:03;;;;;;;10.90;3.30;;;;;;;;;;4969315;28;21234;-65
2022/03/09 10:05:31;;;;;;;7.53;4.15;;;;;;;;;;4957542;28;20927;-65
2022/03/09 10:08:05;;;;;;;7.50;3.67;;;;;;;;;;4955513;28;20033;-65
2022/03/09 10:10:36;;;;;;;8.57;4.40;;;;;;;;;;4968457;28;20038;-64
2022/03/09 10:13:23;;;;;;;5.20;3.30;;;;;;;;;;4983887;28;20208;-65
2022/03/09 10:16:06;;;;;;;8.27;4.00;;;;;;;;;;4985549;28;20054;-65
2022/03/09 10:18:32;;;;;;;6.80;3.75;;;;;;;;;;4949493;28;20049;-65
2022/03/09 10:21:13;;;;;;;8.32;4.22;;;;;;;;;;4971017;28;20030;-66
2022/03/09 10:23:57;;;;;;;7.72;3.50;;;;;;;;;;4972083;28;20070;-65
2022/03/09 10:26:26;;;;;;;8.20;4.28;;;;;;;;;;4971853;28;20506;-65
2022/03/09 10:28:58;;;;;;;9.68;4.32;;;;;;;;;;4987421;28;20034;-65
2022/03/09 10:31:34;;;;;;;6.72;4.60;;;;;;;;;;4960448;28;20038;-65
2022/03/09 10:34:08;;;;;;;5.90;3.55;;;;;;;;;;4986856;28;20034;-65
2022/03/09 10:36:36;;;;;;;;;;;;;;;;;;4974125;28;20514;-64
2022/03/09 10:39:17;;;;;;;8.07;3.83;;;;;;;;;;4973659;28;20308;-63
2022/03/09 10:41:45;;;;;;;9.70;4.15;;;;;;;;;;4971278;28;20041;-65
2022/03/09 10:44:13;;;;;;;6.00;3.83;;;;;;;;;;4988280;28;20042;-64
2022/03/09 10:46:43;;;;;;;8.48;4.10;;;;;;;;;;4972868;28;20177;-64
2022/03/09 10:49:11;;;;;;;5.65;4.10;;;;;;;;;;4972621;28;20042;-64
2022/03/09 10:51:37;;;;;;;6.35;3.85;;;;;;;;;;4970466;28;20038;-64
2022/03/09 10:54:11;;;;;;;7.28;3.72;;;;;;;;;;4968023;28;20865;-64
2022/03/09 10:56:39;;;;;;;6.63;4.20;;;;;;;;;;4971176;28;20034;-64
2022/03/09 10:59:10;;;;;;;8.45;4.28;;;;;;;;;;4956957;28;20633;-64
2022/03/09 11:01:36;;;;;;;7.60;4.10;;;;;;;;;;4968032;28;20953;-64
2022/03/09 11:04:24;;;;;;;5.55;4.00;;;;;;;;;;4971477;28;20033;-64
2022/03/09 11:06:54;;;;;;;8.57;4.10;;;;;;;;;;4968756;28;20038;-64
2022/03/09 11:09:22;;;;;;;5.20;3.65;;;;;;;;;;4956169;28;20042;-64
2022/03/09 11:11:50;;;;;;;12.32;4.57;;;;;;;;;;4966645;28;20029;-64
2022/03/09 11:14:19;;;;;;;5.95;4.05;;;;;;;;;;4975383;28;20053;-64
2022/03/09 11:16:50;;;;;;;5.55;3.65;;;;;;;;;;4955166;28;20153;-64
2022/03/09 11:19:16;;;;;;;5.95;3.80;;;;;;;;;;4957352;28;20030;-64
2022/03/09 11:21:43;;;;;;;7.35;3.85;;;;;;;;;;4971453;28;20124;-64
2022/03/09 11:24:14;;;;;;;6.40;3.92;;;;;;;;;;4970071;28;20413;-64
2022/03/09 11:26:42;;;;;;;7.97;4.45;;;;;;;;;;4971487;28;20034;-64
2022/03/09 11:29:12;;;;;;;5.65;3.78;;;;;;;;;;4969503;28;20041;-64
2022/03/09 11:31:46;;;;;;;5.63;4.13;;;;;;;;;;4970603;28;20577;-64
2022/03/09 11:34:31;;;;;;;6.72;3.83;;;;;;;;;;4972614;28;20220;-65
2022/03/09 11:37:07;;;;;;;5.28;3.85;;;;;;;;;;4974863;28;20030;-64
2022/03/09 11:39:37;;;;;;;5.50;3.70;;;;;;;;;;4992572;28;20516;-69
2022/03/09 11:42:21;;;;;;;7.32;4.22;;;;;;;;;;4974820;28;20501;-63
2022/03/09 11:45:06;;;;;;;7.60;3.83;;;;;;;;;;4976223;28;20030;-65
2022/03/09 11:47:55;;;;;;;5.93;3.78;;;;;;;;;;4976613;28;20591;-64
2022/03/09 11:50:20;;;;;;;6.20;4.13;;;;;;;;;;4976647;28;20073;-64
2022/03/09 11:53:00;;;;;;;10.07;3.78;;;;;;;;;;4976995;28;20034;-64
2022/03/09 11:55:31;;;;;;;8.25;4.15;;;;;;;;;;4973617;28;20058;-64
2022/03/09 11:58:07;;;;;;;8.45;4.45;;;;;;;;;;4961336;28;20061;-65
2022/03/09 12:00:34;;;;;;;5.05;3.78;;;;;;;;;;4992116;28;20446;-66
2022/03/09 12:02:59;;;;;;;6.18;4.22;;;;;;;;;;4975285;28;20033;-65
2022/03/09 12:05:25;;;;;;;7.03;3.45;;;;;;;;;;4975545;28;20041;-64
2022/03/09 12:07:56;;;;;;;8.52;4.10;;;;;;;;;;4958624;28;20485;-66
2022/03/09 12:10:39;;;;;;;6.53;3.85;;;;;;;;;;4991978;28;20050;-64
2022/03/09 12:13:13;;;;;;;6.68;3.95;;;;;;;;;;4974625;28;20481;-64
2022/03/09 12:15:58;;;;;;;9.45;4.20;;;;;;;;;;4960478;28;20077;-65
2022/03/09 12:18:32;;;;;;;6.28;4.13;;;;;;;;;;4975686;28;20045;-65
2022/03/09 12:20:57;;;;;;;9.05;4.50;;;;;;;;;;4977759;28;20164;-65
2022/03/09 12:23:26;;;;;;;7.03;4.20;;;;;;;;;;4975215;28;20161;-65
2022/03/09 12:25:56;;;;;;;6.93;4.00;;;;;;;;;;4975796;28;20065;-65
2022/03/09 12:28:28;;;;;;;6.93;4.07;;;;;;;;;;4976248;28;21251;-64
2022/03/09 12:30:53;;;;;;;6.32;4.35;;;;;;;;;;4973124;28;20045;-65
2022/03/09 12:33:21;;;;;;;8.57;3.90;;;;;;;;;;4973560;28;20022;-65
2022/03/09 12:36:02;;;;;;;7.57;4.50;;;;;;;;;;4959592;28;20342;-65
2022/03/09 12:38:38;;;;;;;7.00;4.53;;;;;;;;;;4990462;28;20579;-64
2022/03/09 12:41:22;;;;;;;5.72;4.60;;;;;;;;;;4974325;28;20038;-65
2022/03/09 12:43:50;;;;;;;9.02;4.15;;;;;;;;;;4990652;28;20035;-65
2022/03/09 12:46:20;;;;;;;5.97;4.10;;;;;;;;;;4975693;28;20041;-66
2022/03/09 12:48:47;;;;;;;9.07;4.22;;;;;;;;;;4975190;28;20037;-65
2022/03/09 12:51:16;;;;;;;11.70;4.18;;;;;;;;;;4974851;28;20049;-65
2022/03/09 12:53:42;;;;;;;7.20;4.40;;;;;;;;;;4990306;28;20097;-65
2022/03/09 12:56:14;;;;;;;9.43;3.97;;;;;;;;;;4974381;28;20101;-66
2022/03/09 12:58:39;;;;;;;4.40;3.78;;;;;;;;;;4974388;28;20037;-67
2022/03/09 13:01:05;;;;;;;7.65;4.05;;;;;;;;;;4947431;28;20486;-65
2022/03/09 13:03:31;;;;;;;9.35;4.10;;;;;;;;;;4975449;28;20042;-66
2022/03/09 13:05:59;;;;;;;5.63;3.17;;;;;;;;;;4975064;28;20371;-66
2022/03/09 13:08:33;;;;;;;7.47;4.45;;;;;;;;;;4990427;28;20038;-65
2022/03/09 13:11:05;;;;;;;10.45;4.20;;;;;;;;;;4973778;28;20494;-66
2022/03/09 13:13:33;;;;;;;7.93;3.42;;;;;;;;;;4971760;28;20026;-65
2022/03/09 13:16:02;;;;;;;4.57;3.50;;;;;;;;;;4976192;28;20615;-66
2022/03/09 13:18:35;;;;;;;6.10;4.55;;;;;;;;;;4975634;28;20046;-65
2022/03/09 13:21:06;;;;;;;7.72;4.50;;;;;;;;;;4987894;28;20072;-65
2022/03/09 13:23:42;;;;;;;11.05;4.13;;;;;;;;;;4974176;28;20127;-66
2022/03/09 13:26:13;;;;;;;5.63;4.22;;;;;;;;;;4975030;28;20038;-65
2022/03/09 13:28:39;;;;;;;6.95;4.25;;;;;;;;;;4988717;28;20097;-65
2022/03/09 13:31:04;;;;;;;5.05;4.35;;;;;;;;;;4973905;28;21562;-65
2022/03/09 13:33:30;;;;;;;4.38;3.45;;;;;;;;;;4974558;28;20079;-66
2022/03/09 13:35:56;;;;;;;7.10;4.57;;;;;;;;;;4976206;28;20026;-67
2022/03/09 13:38:29;;;;;;;6.75;3.75;;;;;;;;;;4990374;28;20501;-66
2022/03/09 13:44:32;;;;;;;6.45;3.60;;;;;;;;;;4973249;28;20113;-66
2022/03/09 13:47:05;;;;;;;6.13;4.07;;;;;;;;;;4973892;28;20029;-66
2022/03/09 13:49:45;;;;;;;6.47;4.55;;;;;;;;;;4988836;28;20159;-66
2022/03/09 13:52:21;;;;;;;5.07;3.92;;;;;;;;;;4971689;28;20115;-65
2022/03/09 13:54:50;;;;;;;5.88;4.30;;;;;;;;;;4975713;28;20505;-65
2022/03/09 13:57:27;;;;;;;6.60;3.90;;;;;;;;;;4973416;28;20029;-64
2022/03/09 13:59:53;;;;;;;6.00;3.83;;;;;;;;;;4975722;28;20029;-65
2022/03/09 14:02:19;;;;;;;8.00;4.00;;;;;;;;;;4958720;28;20037;-65
2022/03/09 14:04:48;;;;;;;7.70;4.05;;;;;;;;;;4960527;28;20023;-65
2022/03/09 14:07:14;;;;;;;5.43;4.25;;;;;;;;;;4957989;28;20049;-65
2022/03/09 14:10:05;;;;;;;5.47;4.32;;;;;;;;;;4971989;28;20022;-64
2022/03/09 14:12:36;;;;;;;4.80;4.15;;;;;;;;;;4974493;28;20049;-66
2022/03/09 14:15:02;;;;;;;10.32;4.28;;;;;;;;;;4975718;28;20030;-64
2022/03/09 14:17:28;;;;;;;7.50;4.30;;;;;;;;;;4974183;28;20951;-65
2022/03/09 14:19:53;;;;;;;9.00;4.28;;;;;;;;;;4972919;28;20087;-65
2022/03/09 14:22:19;;;;;;;5.95;4.13;;;;;;;;;;4989496;28;21911;-66
2022/03/09 14:24:47;;;;;;;5.93;4.38;;;;;;;;;;4973847;28;20384;-65
2022/03/09 14:27:14;;;;;;;6.82;4.07;;;;;;;;;;4972343;28;20020;-66
2022/03/09 14:29:43;;;;;;;8.63;4.85;;;;;;;;;;4972864;28;20037;-66
2022/03/09 14:32:08;;;;;;;5.70;4.30;;;;;;;;;;4959229;28;20314;-66
2022/03/09 14:34:36;;;;;;;6.03;4.13;;;;;;;;;;4956805;28;20033;-65
2022/03/09 14:37:01;;;;;;;8.70;4.55;;;;;;;;;;4989531;28;20038;-66
2022/03/09 14:39:29;;;;;;;7.65;4.50;;;;;;;;;;4971788;28;20434;-66
2022/03/09 14:41:57;;;;;;;7.32;4.57;;;;;;;;;;4959009;28;20032;-65
2022/03/09 14:44:26;;;;;;;6.90;4.50;;;;;;;;;;4974730;28;20045;-65
2022/03/09 14:46:55;;;;;;;6.15;4.50;;;;;;;;;;4988261;28;20524;-65
2022/03/09 14:49:23;;;;;;;5.30;4.45;;;;;;;;;;4974116;28;21534;-64